createdAt,value
2022-12-19T00:01:29.299Z,81.21
2022-12-19T00:06:43.808Z,81.31
2022-12-19T00:11:51.841Z,81.21
2022-12-19T00:16:58.915Z,81.37
2022-12-19T00:22:11.052Z,81.36
2022-12-19T00:27:18.503Z,81.19
2022-12-19T00:32:26.756Z,81.21
2022-12-19T00:37:33.789Z,81.25
2022-12-19T00:42:40.849Z,81.30
2022-12-19T00:47:49.012Z,81.26
2022-12-19T00:52:56.315Z,81.22
2022-12-19T00:58:03.381Z,81.22
2022-12-19T01:03:10.464Z,81.21
2022-12-19T01:08:20.591Z,81.22
2022-12-19T01:13:30.939Z,81.21
2022-12-19T01:18:38.437Z,81.24
2022-12-19T01:23:43.895Z,81.25
2022-12-19T01:28:51.061Z,81.28
2022-12-19T01:34:00.161Z,81.30
2022-12-19T01:39:08.526Z,81.33
2022-12-19T01:44:15.640Z,81.57
2022-12-19T01:49:31.182Z,81.46
2022-12-19T01:54:42.233Z,81.32
2022-12-19T01:59:55.899Z,81.36
2022-12-19T02:05:04.684Z,81.43
2022-12-19T02:10:12.271Z,81.39
2022-12-19T02:15:18.515Z,81.30
2022-12-19T02:20:53.628Z,81.48
2022-12-19T02:26:19.883Z,81.51
2022-12-19T02:31:30.823Z,81.46
2022-12-19T02:36:45.395Z,81.31
2022-12-19T02:41:59.482Z,81.34
2022-12-19T02:47:10.070Z,81.31
2022-12-19T02:52:47.436Z,81.47
2022-12-19T02:58:23.355Z,81.39
2022-12-19T03:03:37.541Z,81.39
2022-12-19T03:08:48.694Z,81.44
2022-12-19T03:14:02.045Z,81.52
2022-12-19T03:19:13.240Z,81.49
2022-12-19T03:24:21.255Z,81.48
2022-12-19T03:29:34.225Z,81.48
2022-12-19T03:34:46.388Z,81.34
2022-12-19T03:40:00.188Z,81.35
2022-12-19T03:45:10.342Z,81.46
2022-12-19T03:50:18.739Z,81.45
2022-12-19T03:55:32.839Z,81.33
2022-12-19T04:00:42.816Z,81.45
2022-12-19T04:05:51.989Z,81.40
2022-12-19T04:11:09.110Z,81.38
2022-12-19T04:16:24.879Z,81.48
2022-12-19T04:21:36.634Z,81.49
2022-12-19T04:26:46.322Z,81.46
2022-12-19T04:31:54.231Z,81.45
2022-12-19T04:37:02.562Z,81.54
2022-12-19T04:42:09.899Z,81.55
2022-12-19T04:47:17.262Z,81.53
2022-12-19T04:52:24.359Z,81.46
2022-12-19T04:57:33.599Z,81.58
2022-12-19T05:02:41.476Z,81.60
2022-12-19T05:07:48.870Z,81.53
2022-12-19T05:12:56.344Z,81.56
2022-12-19T05:18:01.914Z,81.55
2022-12-19T05:23:16.789Z,81.50
2022-12-19T05:28:24.978Z,81.60
2022-12-19T05:33:34.580Z,81.56
2022-12-19T05:38:41.728Z,81.60
2022-12-19T05:43:52.936Z,81.61
2022-12-19T05:49:00.597Z,81.56
2022-12-19T05:54:08.244Z,81.60
2022-12-19T05:59:13.719Z,81.60
2022-12-19T06:04:20.881Z,81.54
2022-12-19T06:09:28.278Z,81.54
2022-12-19T06:14:33.806Z,81.58
2022-12-19T06:19:41.135Z,81.68
2022-12-19T06:24:48.409Z,81.61
2022-12-19T06:29:55.612Z,81.61
2022-12-19T06:35:04.802Z,81.61
2022-12-19T06:40:34.169Z,81.64
2022-12-19T06:45:41.314Z,81.57
2022-12-19T06:50:48.477Z,81.65
2022-12-19T06:55:56.620Z,81.63
2022-12-19T07:01:04.016Z,81.61
2022-12-19T07:06:11.585Z,81.66
2022-12-19T07:11:18.977Z,81.71
2022-12-19T07:16:25.299Z,81.65
2022-12-19T07:21:35.002Z,81.65
2022-12-19T07:26:42.583Z,81.54
2022-12-19T07:31:52.658Z,81.59
2022-12-19T07:36:59.908Z,81.54
2022-12-19T07:42:07.435Z,81.63
2022-12-19T07:47:18.646Z,81.54
2022-12-19T07:52:25.727Z,81.55
2022-12-19T07:57:33.094Z,81.39
2022-12-19T08:02:40.514Z,81.34
2022-12-19T08:07:47.795Z,81.13
2022-12-19T08:12:55.220Z,81.06
2022-12-19T08:18:03.737Z,81.05
2022-12-19T08:23:18.905Z,81.08
2022-12-19T08:28:29.269Z,81.11
2022-12-19T08:33:43.691Z,81.16
2022-12-19T08:45:54.351Z,80.90
2022-12-19T08:51:04.329Z,80.73
2022-12-19T08:56:15.606Z,80.66
2022-12-19T09:01:24.181Z,80.24
2022-12-19T09:06:32.935Z,80.73
2022-12-19T09:11:47.592Z,80.29
2022-12-19T09:16:55.840Z,79.68
2022-12-19T09:22:06.411Z,80.15
2022-12-19T09:27:14.109Z,80.22
2022-12-19T09:32:22.226Z,80.25
2022-12-19T09:37:30.281Z,79.65
2022-12-19T09:42:48.483Z,79.37
2022-12-19T09:47:59.594Z,79.45
2022-12-19T09:53:14.602Z,79.65
2022-12-19T09:58:33.227Z,79.65
2022-12-19T10:03:45.122Z,79.03
2022-12-19T10:10:16.562Z,79.31
2022-12-19T10:14:38.219Z,79.52
2022-12-19T10:20:04.644Z,79.46
2022-12-19T10:25:27.924Z,79.42
2022-12-19T10:30:38.104Z,78.75
2022-12-19T10:35:49.438Z,78.83
2022-12-19T10:41:13.460Z,78.61
2022-12-19T10:46:26.914Z,78.57
2022-12-19T10:51:34.879Z,79.10
2022-12-19T10:56:42.006Z,78.38
2022-12-19T11:02:00.223Z,78.02
2022-12-19T11:07:21.795Z,77.93
2022-12-19T11:15:16.184Z,78.30
2022-12-19T11:26:19.620Z,78.27
2022-12-19T11:31:29.375Z,78.13
2022-12-19T11:44:43.514Z,78.04
2022-12-19T11:50:17.550Z,77.87
2022-12-19T11:55:27.966Z,77.50
2022-12-19T12:00:36.675Z,77.72
2022-12-19T12:05:48.278Z,77.95
2022-12-19T12:16:01.756Z,78.08
2022-12-19T12:29:02.418Z,77.94
2022-12-19T12:32:05.781Z,78.01
2022-12-19T12:41:20.759Z,78.06
2022-12-19T12:46:36.284Z,77.98
2022-12-19T12:51:44.865Z,77.93
2022-12-19T12:56:55.456Z,77.94
2022-12-19T13:02:16.634Z,78.06
2022-12-19T13:07:42.554Z,77.91
2022-12-19T13:13:09.278Z,77.98
2022-12-19T13:18:42.945Z,77.94
2022-12-19T13:23:50.922Z,77.86
2022-12-19T13:28:56.463Z,77.81
2022-12-19T13:34:20.389Z,77.78
2022-12-19T13:40:02.344Z,77.88
2022-12-19T13:45:08.792Z,77.82
2022-12-19T13:50:38.112Z,77.75
2022-12-19T13:55:45.448Z,77.75
2022-12-19T14:00:56.573Z,77.70
2022-12-19T14:06:22.836Z,77.68
2022-12-19T14:12:26.733Z,77.62
2022-12-19T14:17:10.493Z,77.57
2022-12-19T14:22:26.465Z,77.55
2022-12-19T14:28:20.605Z,77.45
2022-12-19T14:33:46.019Z,77.54
2022-12-19T14:39:20.789Z,77.47
2022-12-19T14:52:35.692Z,77.47
2022-12-19T14:54:05.505Z,77.25
2022-12-19T14:56:12.547Z,77.32
2022-12-19T15:01:08.960Z,77.41
2022-12-19T15:07:08.388Z,77.36
2022-12-19T15:14:49.311Z,77.25
2022-12-19T15:17:48.140Z,77.42
2022-12-19T15:22:55.372Z,77.34
2022-12-19T15:28:03.234Z,77.28
2022-12-19T15:33:13.485Z,77.31
2022-12-19T15:38:20.887Z,77.37
2022-12-19T15:44:01.875Z,77.33
2022-12-19T15:48:55.147Z,77.26
2022-12-19T15:54:38.388Z,77.21
2022-12-19T15:59:37.770Z,77.16
2022-12-19T16:04:45.902Z,77.30
2022-12-19T16:09:53.232Z,77.32
2022-12-19T16:15:02.772Z,77.29
2022-12-19T16:20:18.831Z,77.23
2022-12-19T16:25:33.563Z,77.19
2022-12-19T16:30:43.584Z,77.24
2022-12-19T16:36:07.556Z,77.17
2022-12-19T16:41:28.309Z,77.30
2022-12-19T16:46:35.853Z,77.34
2022-12-19T16:51:43.487Z,77.30
2022-12-19T16:56:52.926Z,77.22
2022-12-19T17:02:00.938Z,77.25
2022-12-19T17:07:13.175Z,77.23
2022-12-19T17:12:21.591Z,77.37
2022-12-19T17:17:28.754Z,77.24
2022-12-19T17:22:35.910Z,77.20
2022-12-19T17:27:43.993Z,77.34
2022-12-19T17:32:56.323Z,77.36
2022-12-19T17:38:06.210Z,77.40
2022-12-19T17:43:14.757Z,77.47
2022-12-19T17:48:28.897Z,77.44
2022-12-19T17:53:39.754Z,77.51
2022-12-19T17:58:48.749Z,77.57
2022-12-19T18:03:59.246Z,77.63
2022-12-19T18:09:10.242Z,77.72
2022-12-19T18:14:18.928Z,77.79
2022-12-19T18:19:30.770Z,77.83
2022-12-19T18:24:42.000Z,77.88
2022-12-19T18:29:50.630Z,77.96
2022-12-19T18:34:59.511Z,77.92
2022-12-19T18:40:19.539Z,78.08
2022-12-19T18:45:36.152Z,78.27
2022-12-19T18:50:51.694Z,78.28
2022-12-19T18:56:00.328Z,78.28
2022-12-19T19:01:15.838Z,78.42
2022-12-19T19:06:25.959Z,78.62
2022-12-19T19:11:34.147Z,78.66
2022-12-19T19:16:41.798Z,78.83
2022-12-19T19:21:50.257Z,79.02
2022-12-19T19:26:57.455Z,79.05
2022-12-19T19:32:04.562Z,79.07
2022-12-19T19:37:14.965Z,79.31
2022-12-19T19:42:22.049Z,79.40
2022-12-19T19:47:32.410Z,79.57
2022-12-19T19:52:40.463Z,79.55
2022-12-19T19:57:46.159Z,79.60
2022-12-19T20:02:53.443Z,79.72
2022-12-19T20:08:00.685Z,79.69
2022-12-19T20:13:07.729Z,79.82
2022-12-19T20:18:15.323Z,79.93
2022-12-19T20:23:22.456Z,79.89
2022-12-19T20:28:30.135Z,80.05
2022-12-19T20:33:37.474Z,80.09
2022-12-19T20:38:45.119Z,80.08
2022-12-19T20:43:53.380Z,80.12
2022-12-19T20:49:01.423Z,80.18
2022-12-19T20:54:13.115Z,80.20
2022-12-19T20:59:20.853Z,80.27
2022-12-19T21:04:29.596Z,80.22
2022-12-19T21:09:37.318Z,80.27
2022-12-19T21:14:44.817Z,80.33
2022-12-19T21:19:52.339Z,80.51
2022-12-19T21:25:00.603Z,80.43
2022-12-19T21:30:12.301Z,80.51
2022-12-19T21:35:19.759Z,80.60
2022-12-19T21:40:27.207Z,80.52
2022-12-19T21:45:34.627Z,80.64
2022-12-19T21:50:41.917Z,80.63
2022-12-19T21:55:49.294Z,80.75
2022-12-19T22:01:18.683Z,80.85
2022-12-19T22:06:33.573Z,80.87
2022-12-19T22:11:59.937Z,80.90
2022-12-19T22:17:08.117Z,80.94
2022-12-19T22:22:15.342Z,80.90
2022-12-19T22:27:22.585Z,81.00
2022-12-19T22:32:30.914Z,81.00
2022-12-19T22:37:38.224Z,81.09
2022-12-19T22:42:45.580Z,81.24
2022-12-19T22:47:52.863Z,81.22
2022-12-19T22:53:00.477Z,81.20
2022-12-19T22:58:08.739Z,81.25
2022-12-19T23:03:19.273Z,81.25
2022-12-19T23:08:26.913Z,81.33
2022-12-19T23:13:34.185Z,81.39
2022-12-19T23:18:42.435Z,81.46
2022-12-19T23:23:52.064Z,81.37
2022-12-19T23:29:01.209Z,81.38
2022-12-19T23:34:08.495Z,81.56
2022-12-19T23:39:15.760Z,81.50
2022-12-19T23:44:22.977Z,81.61
2022-12-19T23:49:30.071Z,81.77
2022-12-19T23:54:37.405Z,81.55
2022-12-19T23:59:44.430Z,81.71
